Cleburne, Illinois
Current Conditions -  °F | °C
As of 9:52 AM on Tuesday 21 Oct 2014 (Local Time) from KMDH Reporting Station
Clear Clear  
Wind Chill: 57°   Ceiling: Unl
Heat Index: 57°   Visibility: NA
Dew Point: 47°   Wind: 7mph
Humidity: 69%   Direction: 320°NW
Pressure: 30.11"   Gusts: NA
Location:  37.9667°N, 89.1298°W
Report Text: KMDH 211452Z 32006KT CLR 14/08 A3011 RMK AO2 SLP196 T01390083 53016 $
Loading
Personal Weather Stations






























Interactive Weather Map
Tropical Storm Tracking
New forecast layout! Learn more

10-Day Weather Forecast

Advertisements
Track Severe Weather on mobile